sensor_id;sensor_type;location;lat;lon;timestamp;temperature;humidity
74359;DHT22;62792;46.236;6.040;2023-07-31T00:02:09;26.50;48.30
74359;DHT22;62792;46.236;6.040;2023-07-31T00:07:12;26.40;49.40
74359;DHT22;62792;46.236;6.040;2023-07-31T00:12:16;26.40;48.60
74359;DHT22;62792;46.236;6.040;2023-07-31T00:17:19;26.40;48.60
74359;DHT22;62792;46.236;6.040;2023-07-31T00:22:22;26.30;49.50
74359;DHT22;62792;46.236;6.040;2023-07-31T00:27:27;26.30;49.60
74359;DHT22;62792;46.236;6.040;2023-07-31T00:32:30;26.40;49.30
74359;DHT22;62792;46.236;6.040;2023-07-31T00:37:33;26.30;49.30
74359;DHT22;62792;46.236;6.040;2023-07-31T00:42:37;26.30;49.30
74359;DHT22;62792;46.236;6.040;2023-07-31T00:47:40;26.30;49.50
74359;DHT22;62792;46.236;6.040;2023-07-31T00:52:43;26.10;49.60
74359;DHT22;62792;46.236;6.040;2023-07-31T00:57:47;26.10;49.70
74359;DHT22;62792;46.236;6.040;2023-07-31T01:02:52;26.20;49.50
74359;DHT22;62792;46.236;6.040;2023-07-31T01:07:56;26.10;49.60
74359;DHT22;62792;46.236;6.040;2023-07-31T01:13:07;26.10;49.60
74359;DHT22;62792;46.236;6.040;2023-07-31T01:18:10;26.00;49.50
74359;DHT22;62792;46.236;6.040;2023-07-31T01:23:22;26.10;49.50
74359;DHT22;62792;46.236;6.040;2023-07-31T01:28:46;26.10;49.40
74359;DHT22;62792;46.236;6.040;2023-07-31T01:33:57;26.00;49.60
74359;DHT22;62792;46.236;6.040;2023-07-31T01:39:02;26.00;49.50
74359;DHT22;62792;46.236;6.040;2023-07-31T01:44:07;26.00;49.60
74359;DHT22;62792;46.236;6.040;2023-07-31T01:49:10;26.00;49.70
74359;DHT22;62792;46.236;6.040;2023-07-31T01:54:13;25.90;49.70
74359;DHT22;62792;46.236;6.040;2023-07-31T01:59:17;25.90;49.60
74359;DHT22;62792;46.236;6.040;2023-07-31T02:04:20;25.90;49.60
74359;DHT22;62792;46.236;6.040;2023-07-31T02:09:23;25.90;49.80
74359;DHT22;62792;46.236;6.040;2023-07-31T02:14:27;25.90;49.70
74359;DHT22;62792;46.236;6.040;2023-07-31T02:19:30;25.90;49.50
74359;DHT22;62792;46.236;6.040;2023-07-31T02:24:33;25.80;49.60
74359;DHT22;62792;46.236;6.040;2023-07-31T02:29:37;25.80;49.50
74359;DHT22;62792;46.236;6.040;2023-07-31T02:34:40;25.80;49.60
74359;DHT22;62792;46.236;6.040;2023-07-31T02:39:44;25.70;49.30
74359;DHT22;62792;46.236;6.040;2023-07-31T02:44:48;25.80;49.60
74359;DHT22;62792;46.236;6.040;2023-07-31T02:49:53;25.80;49.50
74359;DHT22;62792;46.236;6.040;2023-07-31T02:54:57;25.70;49.60
74359;DHT22;62792;46.236;6.040;2023-07-31T03:00:02;25.70;49.60
74359;DHT22;62792;46.236;6.040;2023-07-31T03:05:07;25.70;49.60
74359;DHT22;62792;46.236;6.040;2023-07-31T03:10:10;25.70;49.60
74359;DHT22;62792;46.236;6.040;2023-07-31T03:15:15;25.60;49.70
74359;DHT22;62792;46.236;6.040;2023-07-31T03:20:18;25.60;49.80
74359;DHT22;62792;46.236;6.040;2023-07-31T03:25:20;25.70;49.90
74359;DHT22;62792;46.236;6.040;2023-07-31T03:30:25;25.60;49.80
74359;DHT22;62792;46.236;6.040;2023-07-31T03:35:28;25.60;49.80
74359;DHT22;62792;46.236;6.040;2023-07-31T03:40:31;25.60;49.70
74359;DHT22;62792;46.236;6.040;2023-07-31T03:45:35;25.60;49.80
74359;DHT22;62792;46.236;6.040;2023-07-31T03:50:38;25.40;50.00
74359;DHT22;62792;46.236;6.040;2023-07-31T03:55:41;25.50;49.90
74359;DHT22;62792;46.236;6.040;2023-07-31T04:00:45;25.40;49.90
74359;DHT22;62792;46.236;6.040;2023-07-31T04:05:48;25.60;50.10
74359;DHT22;62792;46.236;6.040;2023-07-31T04:10:50;25.50;50.10
74359;DHT22;62792;46.236;6.040;2023-07-31T04:15:55;25.40;50.10
74359;DHT22;62792;46.236;6.040;2023-07-31T04:20:58;25.40;50.00
74359;DHT22;62792;46.236;6.040;2023-07-31T04:26:02;25.40;50.10
74359;DHT22;62792;46.236;6.040;2023-07-31T04:31:07;25.50;49.90
74359;DHT22;62792;46.236;6.040;2023-07-31T04:36:10;25.40;49.80
74359;DHT22;62792;46.236;6.040;2023-07-31T04:41:13;25.40;49.80
74359;DHT22;62792;46.236;6.040;2023-07-31T04:46:17;25.40;49.90
74359;DHT22;62792;46.236;6.040;2023-07-31T04:51:20;25.30;49.90
74359;DHT22;62792;46.236;6.040;2023-07-31T04:56:24;25.40;50.00
74359;DHT22;62792;46.236;6.040;2023-07-31T05:01:29;25.30;49.90
74359;DHT22;62792;46.236;6.040;2023-07-31T05:06:32;25.30;50.00
74359;DHT22;62792;46.236;6.040;2023-07-31T05:11:35;25.30;49.90
74359;DHT22;62792;46.236;6.040;2023-07-31T05:16:39;25.30;50.00
74359;DHT22;62792;46.236;6.040;2023-07-31T05:21:42;25.30;50.00
74359;DHT22;62792;46.236;6.040;2023-07-31T05:26:45;25.30;50.10
74359;DHT22;62792;46.236;6.040;2023-07-31T05:31:49;25.20;50.20
74359;DHT22;62792;46.236;6.040;2023-07-31T05:36:52;25.20;50.10
74359;DHT22;62792;46.236;6.040;2023-07-31T05:41:55;25.20;50.00
74359;DHT22;62792;46.236;6.040;2023-07-31T05:47:00;25.20;50.10
74359;DHT22;62792;46.236;6.040;2023-07-31T05:52:03;25.20;50.30
74359;DHT22;62792;46.236;6.040;2023-07-31T05:57:06;25.20;50.50
74359;DHT22;62792;46.236;6.040;2023-07-31T06:02:10;25.20;50.20
74359;DHT22;62792;46.236;6.040;2023-07-31T06:07:13;25.10;50.50
74359;DHT22;62792;46.236;6.040;2023-07-31T06:12:16;25.10;50.80
74359;DHT22;62792;46.236;6.040;2023-07-31T06:17:21;25.10;50.60
74359;DHT22;62792;46.236;6.040;2023-07-31T06:22:24;25.10;50.70
74359;DHT22;62792;46.236;6.040;2023-07-31T06:27:28;25.10;50.80
74359;DHT22;62792;46.236;6.040;2023-07-31T06:37:36;25.20;51.00
74359;DHT22;62792;46.236;6.040;2023-07-31T06:42:41;25.10;51.10
74359;DHT22;62792;46.236;6.040;2023-07-31T06:47:47;25.10;51.10
74359;DHT22;62792;46.236;6.040;2023-07-31T06:52:53;25.10;51.30
74359;DHT22;62792;46.236;6.040;2023-07-31T06:57:57;25.10;51.00
74359;DHT22;62792;46.236;6.040;2023-07-31T07:03:04;25.10;51.00
74359;DHT22;62792;46.236;6.040;2023-07-31T07:08:11;25.00;51.10
74359;DHT22;62792;46.236;6.040;2023-07-31T07:13:14;25.10;51.10
74359;DHT22;62792;46.236;6.040;2023-07-31T07:18:18;25.00;51.10
74359;DHT22;62792;46.236;6.040;2023-07-31T07:23:22;25.10;51.40
74359;DHT22;62792;46.236;6.040;2023-07-31T07:28:25;25.00;52.00
74359;DHT22;62792;46.236;6.040;2023-07-31T07:33:31;24.80;52.00
74359;DHT22;62792;46.236;6.040;2023-07-31T07:38:34;24.80;52.40
74359;DHT22;62792;46.236;6.040;2023-07-31T07:43:37;24.80;52.50
74359;DHT22;62792;46.236;6.040;2023-07-31T07:48:41;24.90;52.70
74359;DHT22;62792;46.236;6.040;2023-07-31T07:53:44;24.90;53.20
74359;DHT22;62792;46.236;6.040;2023-07-31T07:58:48;25.10;53.20
74359;DHT22;62792;46.236;6.040;2023-07-31T08:03:53;25.30;53.00
74359;DHT22;62792;46.236;6.040;2023-07-31T08:08:56;25.50;52.80
74359;DHT22;62792;46.236;6.040;2023-07-31T08:13:59;25.60;52.70
74359;DHT22;62792;46.236;6.040;2023-07-31T08:19:05;25.70;51.70
74359;DHT22;62792;46.236;6.040;2023-07-31T08:24:09;25.70;51.70
74359;DHT22;62792;46.236;6.040;2023-07-31T08:29:12;25.80;51.20
74359;DHT22;62792;46.236;6.040;2023-07-31T08:34:16;25.90;50.80
74359;DHT22;62792;46.236;6.040;2023-07-31T08:39:19;25.80;50.60
74359;DHT22;62792;46.236;6.040;2023-07-31T08:44:22;26.00;50.50
74359;DHT22;62792;46.236;6.040;2023-07-31T08:49:27;25.80;50.70
74359;DHT22;62792;46.236;6.040;2023-07-31T08:54:31;25.90;50.70
74359;DHT22;62792;46.236;6.040;2023-07-31T08:59:35;26.00;50.50
74359;DHT22;62792;46.236;6.040;2023-07-31T09:04:39;26.10;50.70
74359;DHT22;62792;46.236;6.040;2023-07-31T09:09:42;26.10;50.40
74359;DHT22;62792;46.236;6.040;2023-07-31T09:14:45;26.10;50.40
74359;DHT22;62792;46.236;6.040;2023-07-31T09:19:50;26.10;50.60
74359;DHT22;62792;46.236;6.040;2023-07-31T09:24:53;26.20;50.00
74359;DHT22;62792;46.236;6.040;2023-07-31T09:29:58;26.20;50.30
74359;DHT22;62792;46.236;6.040;2023-07-31T09:35:03;26.20;50.00
74359;DHT22;62792;46.236;6.040;2023-07-31T09:40:24;26.10;50.00
74359;DHT22;62792;46.236;6.040;2023-07-31T09:45:28;26.20;49.90
74359;DHT22;62792;46.236;6.040;2023-07-31T09:50:43;26.20;49.80
74359;DHT22;62792;46.236;6.040;2023-07-31T09:55:47;26.30;50.20
74359;DHT22;62792;46.236;6.040;2023-07-31T10:00:50;26.30;50.00
74359;DHT22;62792;46.236;6.040;2023-07-31T10:05:55;26.50;48.90
74359;DHT22;62792;46.236;6.040;2023-07-31T10:10:58;26.50;48.80
74359;DHT22;62792;46.236;6.040;2023-07-31T10:16:04;26.40;49.00
74359;DHT22;62792;46.236;6.040;2023-07-31T10:21:08;26.30;50.20
74359;DHT22;62792;46.236;6.040;2023-07-31T10:26:11;26.20;50.10
74359;DHT22;62792;46.236;6.040;2023-07-31T10:31:15;26.20;49.50
74359;DHT22;62792;46.236;6.040;2023-07-31T10:36:21;26.40;48.60
74359;DHT22;62792;46.236;6.040;2023-07-31T10:41:28;26.30;49.60
74359;DHT22;62792;46.236;6.040;2023-07-31T10:46:32;26.20;49.60
74359;DHT22;62792;46.236;6.040;2023-07-31T10:51:36;26.30;49.70
74359;DHT22;62792;46.236;6.040;2023-07-31T10:56:39;26.20;49.60
74359;DHT22;62792;46.236;6.040;2023-07-31T11:01:52;26.20;49.70
74359;DHT22;62792;46.236;6.040;2023-07-31T11:06:58;26.10;49.80
74359;DHT22;62792;46.236;6.040;2023-07-31T11:12:02;26.10;50.20
74359;DHT22;62792;46.236;6.040;2023-07-31T11:17:06;26.00;50.60
74359;DHT22;62792;46.236;6.040;2023-07-31T11:22:10;26.10;50.50
74359;DHT22;62792;46.236;6.040;2023-07-31T11:27:14;26.30;50.40
74359;DHT22;62792;46.236;6.040;2023-07-31T11:32:16;26.40;49.70
74359;DHT22;62792;46.236;6.040;2023-07-31T11:37:21;26.40;50.80
74359;DHT22;62792;46.236;6.040;2023-07-31T11:42:24;26.40;50.00
74359;DHT22;62792;46.236;6.040;2023-07-31T11:47:27;26.40;50.10
74359;DHT22;62792;46.236;6.040;2023-07-31T11:52:34;26.40;49.90
74359;DHT22;62792;46.236;6.040;2023-07-31T11:57:40;26.50;50.10
74359;DHT22;62792;46.236;6.040;2023-07-31T12:02:43;26.60;50.00
74359;DHT22;62792;46.236;6.040;2023-07-31T12:07:48;26.60;49.70
74359;DHT22;62792;46.236;6.040;2023-07-31T12:13:02;26.70;50.00
74359;DHT22;62792;46.236;6.040;2023-07-31T12:18:07;26.70;49.70
74359;DHT22;62792;46.236;6.040;2023-07-31T12:23:16;26.70;49.70
74359;DHT22;62792;46.236;6.040;2023-07-31T12:28:22;26.60;49.80
74359;DHT22;62792;46.236;6.040;2023-07-31T12:33:29;26.80;49.60
74359;DHT22;62792;46.236;6.040;2023-07-31T12:38:34;26.90;49.30
74359;DHT22;62792;46.236;6.040;2023-07-31T12:43:38;27.00;49.00
74359;DHT22;62792;46.236;6.040;2023-07-31T12:48:42;26.90;48.30
74359;DHT22;62792;46.236;6.040;2023-07-31T12:53:47;27.00;47.90
74359;DHT22;62792;46.236;6.040;2023-07-31T12:58:49;26.90;47.70
74359;DHT22;62792;46.236;6.040;2023-07-31T13:03:52;27.10;47.80
74359;DHT22;62792;46.236;6.040;2023-07-31T13:08:57;27.10;48.50
74359;DHT22;62792;46.236;6.040;2023-07-31T13:14:00;27.20;48.10
74359;DHT22;62792;46.236;6.040;2023-07-31T13:19:03;27.20;48.70
74359;DHT22;62792;46.236;6.040;2023-07-31T13:24:08;27.30;48.60
74359;DHT22;62792;46.236;6.040;2023-07-31T13:29:11;27.30;48.10
74359;DHT22;62792;46.236;6.040;2023-07-31T13:34:14;27.30;48.20
74359;DHT22;62792;46.236;6.040;2023-07-31T13:39:18;27.40;48.20
74359;DHT22;62792;46.236;6.040;2023-07-31T13:44:21;27.40;47.80
74359;DHT22;62792;46.236;6.040;2023-07-31T13:49:24;27.40;47.60
74359;DHT22;62792;46.236;6.040;2023-07-31T13:54:28;27.20;47.20
74359;DHT22;62792;46.236;6.040;2023-07-31T13:59:32;27.20;46.90
74359;DHT22;62792;46.236;6.040;2023-07-31T14:04:35;27.20;47.00
74359;DHT22;62792;46.236;6.040;2023-07-31T14:09:39;26.90;47.00
74359;DHT22;62792;46.236;6.040;2023-07-31T14:14:42;26.80;47.20
74359;DHT22;62792;46.236;6.040;2023-07-31T14:19:45;26.80;47.50
74359;DHT22;62792;46.236;6.040;2023-07-31T14:24:49;26.60;47.90
74359;DHT22;62792;46.236;6.040;2023-07-31T14:29:52;26.60;48.30
74359;DHT22;62792;46.236;6.040;2023-07-31T14:34:55;26.90;48.00
74359;DHT22;62792;46.236;6.040;2023-07-31T14:40:00;26.70;47.40
74359;DHT22;62792;46.236;6.040;2023-07-31T14:45:04;27.30;47.20
74359;DHT22;62792;46.236;6.040;2023-07-31T14:50:08;27.60;46.10
74359;DHT22;62792;46.236;6.040;2023-07-31T14:55:13;27.30;46.90
74359;DHT22;62792;46.236;6.040;2023-07-31T15:00:16;27.50;46.80
74359;DHT22;62792;46.236;6.040;2023-07-31T15:05:19;27.10;47.30
74359;DHT22;62792;46.236;6.040;2023-07-31T15:10:24;27.70;44.80
74359;DHT22;62792;46.236;6.040;2023-07-31T15:15:27;28.10;45.00
74359;DHT22;62792;46.236;6.040;2023-07-31T15:20:30;27.70;46.10
74359;DHT22;62792;46.236;6.040;2023-07-31T15:25:35;28.10;43.50
74359;DHT22;62792;46.236;6.040;2023-07-31T15:30:38;27.90;43.10
74359;DHT22;62792;46.236;6.040;2023-07-31T15:35:41;28.30;42.90
74359;DHT22;62792;46.236;6.040;2023-07-31T15:40:46;28.20;42.60
74359;DHT22;62792;46.236;6.040;2023-07-31T15:45:49;28.20;43.20
74359;DHT22;62792;46.236;6.040;2023-07-31T15:50:52;28.20;43.00
74359;DHT22;62792;46.236;6.040;2023-07-31T15:55:57;28.20;43.40
74359;DHT22;62792;46.236;6.040;2023-07-31T16:01:00;28.00;43.90
74359;DHT22;62792;46.236;6.040;2023-07-31T16:06:03;27.90;44.40
74359;DHT22;62792;46.236;6.040;2023-07-31T16:11:07;28.00;44.50
74359;DHT22;62792;46.236;6.040;2023-07-31T16:16:10;27.90;44.50
74359;DHT22;62792;46.236;6.040;2023-07-31T16:21:13;27.90;44.80
74359;DHT22;62792;46.236;6.040;2023-07-31T16:26:17;28.00;44.50
74359;DHT22;62792;46.236;6.040;2023-07-31T16:31:20;28.00;44.70
74359;DHT22;62792;46.236;6.040;2023-07-31T16:36:23;28.10;45.10
74359;DHT22;62792;46.236;6.040;2023-07-31T16:41:27;28.10;44.90
74359;DHT22;62792;46.236;6.040;2023-07-31T16:46:30;28.20;44.90
74359;DHT22;62792;46.236;6.040;2023-07-31T16:51:33;28.20;45.00
74359;DHT22;62792;46.236;6.040;2023-07-31T16:56:38;28.20;44.90
74359;DHT22;62792;46.236;6.040;2023-07-31T17:01:44;28.30;45.00
74359;DHT22;62792;46.236;6.040;2023-07-31T17:06:47;28.40;44.60
74359;DHT22;62792;46.236;6.040;2023-07-31T17:11:51;28.60;44.60
74359;DHT22;62792;46.236;6.040;2023-07-31T17:16:54;28.80;44.50
74359;DHT22;62792;46.236;6.040;2023-07-31T17:21:57;28.80;44.40
74359;DHT22;62792;46.236;6.040;2023-07-31T17:27:01;28.60;45.00
74359;DHT22;62792;46.236;6.040;2023-07-31T17:32:05;28.40;45.20
74359;DHT22;62792;46.236;6.040;2023-07-31T17:37:08;28.40;45.50
74359;DHT22;62792;46.236;6.040;2023-07-31T17:42:13;28.20;45.70
74359;DHT22;62792;46.236;6.040;2023-07-31T17:47:15;28.20;46.20
74359;DHT22;62792;46.236;6.040;2023-07-31T17:52:20;28.00;46.50
74359;DHT22;62792;46.236;6.040;2023-07-31T17:57:25;27.90;46.30
74359;DHT22;62792;46.236;6.040;2023-07-31T18:02:27;27.90;46.20
74359;DHT22;62792;46.236;6.040;2023-07-31T18:07:31;27.80;46.40
74359;DHT22;62792;46.236;6.040;2023-07-31T18:12:35;27.80;46.60
74359;DHT22;62792;46.236;6.040;2023-07-31T18:17:39;27.70;46.40
74359;DHT22;62792;46.236;6.040;2023-07-31T18:22:42;27.70;46.70
74359;DHT22;62792;46.236;6.040;2023-07-31T18:27:47;27.70;46.70
74359;DHT22;62792;46.236;6.040;2023-07-31T18:32:50;27.70;46.90
74359;DHT22;62792;46.236;6.040;2023-07-31T18:37:53;27.60;46.90
74359;DHT22;62792;46.236;6.040;2023-07-31T18:42:57;27.50;46.90
74359;DHT22;62792;46.236;6.040;2023-07-31T18:48:00;27.50;47.10
74359;DHT22;62792;46.236;6.040;2023-07-31T18:53:03;27.50;47.00
74359;DHT22;62792;46.236;6.040;2023-07-31T18:58:08;27.50;46.90
74359;DHT22;62792;46.236;6.040;2023-07-31T19:03:10;27.50;47.40
74359;DHT22;62792;46.236;6.040;2023-07-31T19:08:14;27.40;47.50
74359;DHT22;62792;46.236;6.040;2023-07-31T19:13:18;27.40;47.70
74359;DHT22;62792;46.236;6.040;2023-07-31T19:18:21;27.30;48.10
74359;DHT22;62792;46.236;6.040;2023-07-31T19:23:24;27.30;48.30
74359;DHT22;62792;46.236;6.040;2023-07-31T19:28:29;27.30;48.60
74359;DHT22;62792;46.236;6.040;2023-07-31T19:33:32;27.30;48.40
74359;DHT22;62792;46.236;6.040;2023-07-31T19:38:35;27.30;48.60
74359;DHT22;62792;46.236;6.040;2023-07-31T19:43:39;27.30;48.70
74359;DHT22;62792;46.236;6.040;2023-07-31T19:48:42;27.20;48.60
74359;DHT22;62792;46.236;6.040;2023-07-31T19:53:45;27.30;48.80
74359;DHT22;62792;46.236;6.040;2023-07-31T19:58:49;27.30;48.70
74359;DHT22;62792;46.236;6.040;2023-07-31T20:03:52;27.30;48.60
74359;DHT22;62792;46.236;6.040;2023-07-31T20:08:56;27.30;49.00
74359;DHT22;62792;46.236;6.040;2023-07-31T20:14:03;27.30;49.00
74359;DHT22;62792;46.236;6.040;2023-07-31T20:19:07;27.20;48.80
74359;DHT22;62792;46.236;6.040;2023-07-31T20:24:10;27.20;49.10
74359;DHT22;62792;46.236;6.040;2023-07-31T20:29:14;27.20;49.00
74359;DHT22;62792;46.236;6.040;2023-07-31T20:34:18;27.20;49.00
74359;DHT22;62792;46.236;6.040;2023-07-31T20:39:21;27.10;48.80
74359;DHT22;62792;46.236;6.040;2023-07-31T20:44:25;27.10;48.80
74359;DHT22;62792;46.236;6.040;2023-07-31T20:49:28;27.10;49.00
74359;DHT22;62792;46.236;6.040;2023-07-31T20:54:31;27.00;48.80
74359;DHT22;62792;46.236;6.040;2023-07-31T20:59:36;27.00;48.70
74359;DHT22;62792;46.236;6.040;2023-07-31T21:04:39;27.00;48.70
74359;DHT22;62792;46.236;6.040;2023-07-31T21:09:42;27.00;48.70
74359;DHT22;62792;46.236;6.040;2023-07-31T21:14:47;27.00;48.80
74359;DHT22;62792;46.236;6.040;2023-07-31T21:19:50;26.90;48.80
74359;DHT22;62792;46.236;6.040;2023-07-31T21:24:52;27.00;48.80
74359;DHT22;62792;46.236;6.040;2023-07-31T21:29:57;26.80;48.80
74359;DHT22;62792;46.236;6.040;2023-07-31T21:35:01;26.90;48.50
74359;DHT22;62792;46.236;6.040;2023-07-31T21:40:04;26.90;48.50
74359;DHT22;62792;46.236;6.040;2023-07-31T21:45:09;26.90;48.50
74359;DHT22;62792;46.236;6.040;2023-07-31T21:50:12;26.90;48.60
74359;DHT22;62792;46.236;6.040;2023-07-31T21:55:15;26.90;48.80
74359;DHT22;62792;46.236;6.040;2023-07-31T22:00:20;26.90;48.70
74359;DHT22;62792;46.236;6.040;2023-07-31T22:05:23;26.90;48.90
74359;DHT22;62792;46.236;6.040;2023-07-31T22:10:26;27.00;49.00
74359;DHT22;62792;46.236;6.040;2023-07-31T22:15:31;27.00;49.00
74359;DHT22;62792;46.236;6.040;2023-07-31T22:20:33;27.00;48.90
74359;DHT22;62792;46.236;6.040;2023-07-31T22:25:36;27.00;48.80
74359;DHT22;62792;46.236;6.040;2023-07-31T22:30:41;27.00;48.60
74359;DHT22;62792;46.236;6.040;2023-07-31T22:35:43;27.00;48.70
74359;DHT22;62792;46.236;6.040;2023-07-31T22:40:46;26.90;48.90
74359;DHT22;62792;46.236;6.040;2023-07-31T22:45:51;27.00;48.90
74359;DHT22;62792;46.236;6.040;2023-07-31T22:50:54;27.00;48.80
74359;DHT22;62792;46.236;6.040;2023-07-31T22:56:01;27.00;48.80
74359;DHT22;62792;46.236;6.040;2023-07-31T23:01:06;27.00;49.10
74359;DHT22;62792;46.236;6.040;2023-07-31T23:06:10;27.00;49.10
74359;DHT22;62792;46.236;6.040;2023-07-31T23:11:13;26.90;48.90
74359;DHT22;62792;46.236;6.040;2023-07-31T23:16:17;27.00;48.80
74359;DHT22;62792;46.236;6.040;2023-07-31T23:21:20;27.00;48.80
74359;DHT22;62792;46.236;6.040;2023-07-31T23:26:23;27.00;48.90
74359;DHT22;62792;46.236;6.040;2023-07-31T23:31:27;27.00;48.80
74359;DHT22;62792;46.236;6.040;2023-07-31T23:36:30;26.90;48.80
74359;DHT22;62792;46.236;6.040;2023-07-31T23:41:33;26.80;48.80
74359;DHT22;62792;46.236;6.040;2023-07-31T23:46:37;26.90;48.80
74359;DHT22;62792;46.236;6.040;2023-07-31T23:51:47;26.90;48.80
74359;DHT22;62792;46.236;6.040;2023-07-31T23:56:50;26.90;48.90
